createdAt,value
2018-12-18T00:00:03.739Z,25.30
2018-12-18T00:02:32.349Z,28.23
2018-12-18T00:05:05.849Z,23.53
2018-12-18T00:07:34.442Z,17.77
2018-12-18T00:10:03.032Z,24.13
2018-12-18T00:12:32.283Z,27.63
2018-12-18T00:15:01.202Z,18.00
2018-12-18T00:17:29.715Z,19.47
2018-12-18T00:19:58.541Z,26.20
2018-12-18T00:22:27.288Z,15.87
2018-12-18T00:24:55.871Z,16.30
2018-12-18T00:27:24.356Z,22.40
2018-12-18T00:29:53.276Z,27.73
2018-12-18T00:32:22.025Z,49.30
2018-12-18T00:34:50.599Z,37.77
2018-12-18T00:37:20.285Z,33.57
2018-12-18T00:39:49.567Z,32.93
2018-12-18T00:42:18.057Z,38.97
2018-12-18T00:44:46.641Z,34.77
2018-12-18T00:47:15.532Z,23.00
2018-12-18T00:49:44.011Z,27.40
2018-12-18T00:52:12.717Z,27.97
2018-12-18T00:54:41.573Z,38.97
2018-12-18T00:57:10.107Z,43.97
2018-12-18T00:59:38.877Z,34.87
2018-12-18T01:02:07.545Z,41.87
2018-12-18T01:04:36.219Z,25.63
2018-12-18T01:07:05.253Z,45.97
2018-12-18T01:09:34.255Z,32.23
2018-12-18T01:12:03.264Z,30.20
2018-12-18T01:14:32.503Z,39.90
2018-12-18T01:17:01.005Z,33.17
2018-12-18T01:19:29.635Z,17.93
2018-12-18T01:21:58.332Z,32.93
2018-12-18T01:24:27.149Z,27.83
2018-12-18T01:26:55.764Z,21.30
2018-12-18T01:29:24.423Z,20.97
2018-12-18T01:31:53.591Z,23.67
2018-12-18T01:34:22.217Z,25.83
2018-12-18T01:36:51.448Z,14.30
2018-12-18T01:39:19.969Z,26.87
2018-12-18T01:41:48.476Z,16.23
2018-12-18T01:44:16.998Z,57.13
2018-12-18T01:46:45.567Z,66.73
2018-12-18T01:49:14.173Z,55.95
2018-12-18T01:51:42.688Z,61.53
2018-12-18T01:54:11.277Z,85.17
2018-12-18T01:56:39.770Z,47.58
2018-12-18T01:59:08.537Z,30.15
2018-12-18T02:01:37.097Z,22.90
2018-12-18T02:04:06.058Z,73.22
2018-12-18T02:06:35.633Z,58.10
2018-12-18T02:09:06.482Z,63.02
2018-12-18T02:11:35.539Z,47.62
2018-12-18T02:14:04.398Z,20.77
2018-12-18T02:16:32.994Z,29.23
2018-12-18T02:19:01.585Z,43.92
2018-12-18T02:21:30.051Z,35.70
2018-12-18T02:23:59.159Z,41.88
2018-12-18T02:26:27.771Z,67.12
2018-12-18T02:28:56.470Z,40.03
2018-12-18T02:31:25.425Z,49.98
2018-12-18T02:33:53.926Z,40.03
2018-12-18T02:36:22.496Z,73.30
2018-12-18T02:38:51.022Z,24.02
2018-12-18T02:41:19.684Z,81.47
2018-12-18T02:43:48.127Z,38.20
2018-12-18T02:46:17.338Z,35.55
2018-12-18T02:48:46.022Z,23.55
2018-12-18T02:51:14.516Z,50.80
2018-12-18T02:53:43.028Z,30.05
2018-12-18T02:56:11.531Z,62.03
2018-12-18T02:58:40.249Z,39.85
2018-12-18T03:01:08.799Z,38.20
2018-12-18T03:03:37.565Z,62.75
2018-12-18T03:06:06.032Z,47.60
2018-12-18T03:08:34.507Z,30.10
2018-12-18T03:11:03.126Z,23.40
2018-12-18T03:13:32.361Z,39.27
2018-12-18T03:16:00.894Z,35.75
2018-12-18T03:18:29.393Z,17.27
2018-12-18T03:20:58.041Z,25.82
2018-12-18T03:23:26.598Z,19.48
2018-12-18T03:25:55.100Z,14.95
2018-12-18T03:28:24.543Z,22.00
2018-12-18T03:30:53.048Z,18.10
2018-12-18T03:33:22.323Z,38.10
2018-12-18T03:35:50.801Z,28.57
2018-12-18T03:38:19.557Z,15.80
2018-12-18T03:40:48.374Z,17.45
2018-12-18T03:43:17.239Z,35.68
2018-12-18T03:45:45.814Z,43.28
2018-12-18T03:48:14.688Z,27.00
2018-12-18T03:50:43.386Z,30.93
2018-12-18T03:53:12.513Z,23.27
2018-12-18T03:55:41.152Z,35.27
2018-12-18T03:58:09.861Z,27.98
2018-12-18T04:00:38.453Z,15.83
2018-12-18T04:03:07.202Z,74.45
2018-12-18T04:05:35.750Z,85.60
2018-12-18T04:08:05.005Z,33.08
2018-12-18T04:10:33.590Z,43.78
2018-12-18T04:13:02.166Z,25.85
2018-12-18T04:15:30.886Z,54.23
2018-12-18T04:17:59.593Z,63.35
2018-12-18T04:20:28.772Z,15.25
2018-12-18T04:22:57.279Z,40.35
2018-12-18T04:25:25.732Z,29.25
2018-12-18T04:27:54.685Z,27.15
2018-12-18T04:30:23.595Z,20.57
2018-12-18T04:32:52.145Z,42.50
2018-12-18T04:35:21.536Z,52.38
2018-12-18T04:37:50.033Z,41.88
2018-12-18T04:40:19.055Z,28.42
2018-12-18T04:42:47.901Z,18.57
2018-12-18T04:45:17.365Z,17.37
2018-12-18T04:47:46.776Z,58.00
2018-12-18T04:50:15.533Z,17.73
2018-12-18T04:52:44.022Z,43.28
2018-12-18T04:55:12.569Z,21.57
2018-12-18T04:57:41.328Z,22.07
2018-12-18T05:00:10.407Z,28.92
2018-12-18T05:02:39.204Z,27.17
2018-12-18T05:05:08.258Z,15.53
2018-12-18T05:07:37.342Z,30.92
2018-12-18T05:10:06.167Z,24.87
2018-12-18T05:12:34.902Z,10.32
2018-12-18T05:15:04.242Z,16.65
2018-12-18T05:17:32.993Z,21.37
2018-12-18T05:20:01.674Z,21.90
2018-12-18T05:22:30.358Z,26.60
2018-12-18T05:24:59.557Z,25.03
2018-12-18T05:27:28.245Z,13.03
2018-12-18T05:29:57.497Z,10.33
2018-12-18T05:32:26.394Z,8.67
2018-12-18T05:34:56.699Z,23.87
2018-12-18T05:37:25.696Z,26.02
2018-12-18T05:39:54.330Z,17.87
2018-12-18T05:42:22.932Z,10.38
2018-12-18T05:44:51.952Z,15.67
2018-12-18T05:47:20.396Z,15.95
2018-12-18T05:49:49.516Z,13.35
2018-12-18T05:52:18.001Z,18.57
2018-12-18T05:54:46.540Z,28.80
2018-12-18T05:57:15.125Z,76.43
2018-12-18T05:59:43.601Z,17.17
2018-12-18T06:02:12.106Z,24.47
2018-12-18T06:04:40.623Z,17.73
2018-12-18T06:07:09.151Z,20.20
2018-12-18T06:09:38.160Z,20.08
2018-12-18T06:12:07.478Z,68.90
2018-12-18T06:14:36.103Z,50.43
2018-12-18T06:17:04.646Z,16.10
2018-12-18T06:19:34.043Z,32.60
2018-12-18T06:22:02.551Z,54.20
2018-12-18T06:24:31.637Z,23.60
2018-12-18T06:27:00.917Z,20.90
2018-12-18T06:29:29.392Z,39.00
2018-12-18T06:31:57.880Z,57.05
2018-12-18T06:34:26.434Z,44.98
2018-12-18T06:36:55.727Z,40.50
2018-12-18T06:39:24.194Z,50.95
2018-12-18T06:41:53.379Z,48.45
2018-12-18T06:44:21.933Z,28.32
2018-12-18T06:46:50.470Z,18.52
2018-12-18T06:49:18.933Z,28.42
2018-12-18T06:51:47.446Z,32.10
2018-12-18T06:54:16.561Z,23.38
2018-12-18T06:56:45.082Z,53.25
2018-12-18T06:59:13.529Z,22.32
2018-12-18T07:01:42.081Z,36.58
2018-12-18T07:04:11.454Z,34.65
2018-12-18T07:06:39.901Z,17.00
2018-12-18T07:09:09.952Z,31.15
2018-12-18T07:11:38.517Z,22.85
2018-12-18T07:14:06.977Z,13.62
2018-12-18T07:16:35.546Z,41.00
2018-12-18T07:19:04.916Z,32.45
2018-12-18T07:21:33.523Z,11.18
2018-12-18T07:24:02.072Z,44.85
2018-12-18T07:26:31.160Z,13.98
2018-12-18T07:28:59.701Z,18.55
2018-12-18T07:31:28.297Z,18.90
2018-12-18T07:33:57.391Z,13.28
2018-12-18T07:36:26.579Z,18.30
2018-12-18T07:38:56.665Z,18.12
2018-12-18T07:41:25.207Z,27.42
2018-12-18T07:43:53.732Z,25.05
2018-12-18T07:46:23.049Z,33.55
2018-12-18T07:48:51.536Z,19.85
2018-12-18T07:51:20.471Z,14.47
2018-12-18T07:53:49.133Z,25.43
2018-12-18T07:56:18.437Z,38.20
2018-12-18T07:58:47.381Z,21.15
2018-12-18T08:01:16.003Z,56.85
2018-12-18T08:03:44.643Z,36.85
2018-12-18T08:06:13.169Z,26.57
2018-12-18T08:08:42.482Z,19.50
2018-12-18T08:11:11.146Z,29.70
2018-12-18T08:13:41.191Z,22.85
2018-12-18T08:16:09.916Z,31.12
2018-12-18T08:18:38.539Z,26.02
2018-12-18T08:21:07.637Z,30.08
2018-12-18T08:23:36.459Z,19.30
2018-12-18T08:26:06.005Z,21.52
2018-12-18T08:28:34.545Z,15.75
2018-12-18T08:31:03.160Z,38.42
2018-12-18T08:33:31.768Z,45.20
2018-12-18T08:36:00.479Z,45.35
2018-12-18T08:38:29.666Z,44.80
2018-12-18T08:40:58.330Z,53.28
2018-12-18T08:43:26.849Z,31.27
2018-12-18T08:45:55.602Z,47.27
2018-12-18T08:48:24.455Z,36.55
2018-12-18T08:50:53.077Z,42.40
2018-12-18T08:53:21.587Z,25.25
2018-12-18T08:55:50.157Z,33.42
2018-12-18T08:58:18.905Z,15.15
2018-12-18T09:00:48.366Z,43.30
2018-12-18T09:03:17.465Z,12.35
2018-12-18T09:05:46.323Z,43.75
2018-12-18T09:08:14.807Z,20.45
2018-12-18T09:10:43.527Z,39.85
2018-12-18T09:13:12.272Z,26.95
2018-12-18T09:15:46.777Z,12.70
2018-12-18T09:18:15.432Z,16.02
2018-12-18T09:20:44.149Z,21.77
2018-12-18T09:23:12.866Z,58.83
2018-12-18T09:25:41.627Z,34.43
2018-12-18T09:28:10.347Z,38.85
2018-12-18T09:30:42.526Z,20.97
2018-12-18T09:33:09.639Z,23.30
2018-12-18T09:35:38.327Z,46.28
2018-12-18T09:38:12.230Z,27.75
2018-12-18T09:40:47.057Z,35.68
2018-12-18T09:43:21.082Z,29.67
2018-12-18T09:45:50.686Z,23.22
2018-12-18T09:48:19.464Z,34.50
2018-12-18T09:50:48.557Z,33.35
2018-12-18T09:53:17.646Z,33.00
2018-12-18T09:55:46.148Z,36.75
2018-12-18T09:58:14.703Z,18.87
2018-12-18T10:00:43.207Z,19.85
2018-12-18T10:03:12.091Z,41.37
2018-12-18T10:05:40.738Z,57.62
2018-12-18T10:08:09.297Z,47.87
2018-12-18T10:10:38.077Z,56.40
2018-12-18T10:13:07.592Z,21.53
2018-12-18T10:15:36.259Z,14.83
2018-12-18T10:18:05.229Z,21.90
2018-12-18T10:20:33.937Z,40.77
2018-12-18T10:23:02.633Z,27.48
2018-12-18T10:25:31.146Z,19.63
2018-12-18T10:28:01.057Z,20.33
2018-12-18T10:30:30.220Z,13.97
2018-12-18T10:32:59.329Z,17.33
2018-12-18T10:35:28.426Z,12.33
2018-12-18T10:37:57.086Z,18.50
2018-12-18T10:40:25.823Z,24.57
2018-12-18T10:42:55.222Z,35.97
2018-12-18T10:45:24.611Z,14.47
2018-12-18T10:47:53.893Z,19.73
2018-12-18T10:50:22.561Z,22.30
2018-12-18T10:52:51.076Z,20.30
2018-12-18T10:55:19.601Z,20.37
2018-12-18T10:57:48.087Z,16.10
2018-12-18T11:00:22.025Z,16.30
2018-12-18T11:02:50.752Z,30.10
2018-12-18T11:05:20.065Z,29.10
2018-12-18T11:07:48.586Z,28.23
2018-12-18T11:10:17.203Z,20.50
2018-12-18T11:13:16.645Z,21.17
2018-12-18T11:15:45.638Z,20.40
2018-12-18T11:18:14.390Z,20.57
2018-12-18T11:20:43.621Z,27.77
2018-12-18T11:23:12.251Z,22.83
2018-12-18T11:25:40.738Z,23.90
2018-12-18T11:28:09.376Z,18.23
2018-12-18T11:30:37.905Z,26.13
2018-12-18T11:33:07.104Z,23.57
2018-12-18T11:35:35.805Z,20.83
2018-12-18T11:38:04.311Z,19.17
2018-12-18T11:40:33.732Z,21.10
2018-12-18T11:43:02.202Z,17.50
2018-12-18T11:45:30.682Z,17.97
2018-12-18T11:48:00.183Z,18.90
2018-12-18T11:50:28.634Z,22.20
2018-12-18T11:52:57.174Z,24.30
2018-12-18T11:55:25.669Z,28.83
2018-12-18T11:57:54.149Z,23.07
2018-12-18T12:00:23.471Z,23.97
2018-12-18T12:02:51.996Z,24.50
2018-12-18T12:05:20.468Z,22.77
2018-12-18T12:07:49.612Z,26.10
2018-12-18T12:10:18.121Z,20.83
2018-12-18T12:12:46.625Z,18.03
2018-12-18T12:15:15.858Z,15.37
2018-12-18T12:17:44.343Z,14.80
2018-12-18T12:20:12.938Z,16.30
2018-12-18T12:22:41.585Z,12.77
2018-12-18T12:25:10.091Z,14.20
2018-12-18T12:27:43.987Z,18.00
2018-12-18T12:30:12.549Z,13.47
2018-12-18T12:32:41.156Z,15.93
2018-12-18T12:35:09.678Z,13.93
2018-12-18T12:37:39.037Z,14.83
2018-12-18T12:40:07.951Z,13.40
2018-12-18T12:42:36.886Z,12.20
2018-12-18T12:45:05.783Z,10.77
2018-12-18T12:47:34.406Z,11.27
2018-12-18T12:50:04.134Z,9.43
2018-12-18T12:52:32.754Z,10.97
2018-12-18T12:55:02.106Z,14.07
2018-12-18T12:57:30.756Z,12.93
2018-12-18T12:59:59.878Z,11.53
2018-12-18T13:02:28.599Z,12.43
2018-12-18T13:04:57.425Z,14.43
2018-12-18T13:07:26.232Z,11.53
2018-12-18T13:09:54.944Z,12.23
2018-12-18T13:12:23.847Z,12.27
2018-12-18T13:14:52.433Z,12.37
2018-12-18T13:17:21.785Z,14.33
2018-12-18T13:19:50.810Z,11.80
2018-12-18T13:22:19.993Z,12.63
2018-12-18T13:24:49.067Z,13.10
2018-12-18T13:27:17.700Z,14.70
2018-12-18T13:29:47.016Z,12.90
2018-12-18T13:32:15.889Z,17.00
2018-12-18T13:34:44.362Z,14.07
2018-12-18T13:37:13.038Z,13.70
2018-12-18T13:39:41.668Z,12.87
2018-12-18T13:42:10.439Z,16.10
2018-12-18T13:44:39.081Z,15.30
2018-12-18T13:47:08.472Z,12.40
2018-12-18T13:49:37.165Z,16.50
2018-12-18T13:52:05.796Z,14.20
2018-12-18T13:54:35.009Z,18.20
2018-12-18T13:57:03.577Z,13.43
2018-12-18T13:59:32.543Z,12.97
2018-12-18T14:02:01.401Z,10.87
2018-12-18T14:04:29.912Z,12.73
2018-12-18T14:06:58.523Z,12.57
2018-12-18T14:09:27.101Z,11.70
2018-12-18T14:11:55.690Z,11.37
2018-12-18T14:14:24.453Z,12.37
2018-12-18T14:16:53.028Z,17.53
2018-12-18T14:19:22.020Z,16.47
2018-12-18T14:21:50.643Z,22.90
2018-12-18T14:24:19.330Z,35.97
2018-12-18T14:26:48.640Z,58.50
2018-12-18T14:29:17.295Z,61.20
2018-12-18T14:31:46.088Z,44.20
2018-12-18T14:34:15.616Z,43.00
2018-12-18T14:36:44.206Z,42.27
2018-12-18T14:39:13.412Z,25.03
2018-12-18T14:41:41.953Z,25.90
2018-12-18T14:44:10.724Z,18.83
2018-12-18T14:46:39.216Z,22.83
2018-12-18T14:49:07.850Z,17.07
2018-12-18T14:51:36.489Z,16.03
2018-12-18T14:54:05.214Z,26.73
2018-12-18T14:56:34.410Z,19.20
2018-12-18T14:59:03.264Z,19.53
2018-12-18T15:01:32.234Z,23.80
2018-12-18T15:04:01.382Z,24.53
2018-12-18T15:06:30.934Z,29.03
2018-12-18T15:08:59.725Z,21.90
2018-12-18T15:11:28.290Z,16.50
2018-12-18T15:13:56.934Z,12.87
2018-12-18T15:16:25.775Z,14.27
2018-12-18T15:18:54.866Z,13.20
2018-12-18T15:21:23.814Z,14.53
2018-12-18T15:23:52.509Z,14.90
2018-12-18T15:26:21.294Z,12.40
2018-12-18T15:28:50.414Z,9.83
2018-12-18T15:31:19.406Z,8.73
2018-12-18T15:33:48.196Z,10.07
2018-12-18T15:36:18.295Z,9.37
2018-12-18T15:38:47.089Z,8.47
2018-12-18T15:41:15.764Z,8.83
2018-12-18T15:43:44.704Z,9.20
2018-12-18T15:46:13.641Z,8.38
2018-12-18T15:48:42.223Z,9.43
2018-12-18T15:51:10.933Z,8.00
2018-12-18T15:53:39.565Z,10.82
2018-12-18T15:56:08.346Z,7.65
2018-12-18T15:58:36.926Z,8.95
2018-12-18T16:01:06.611Z,15.45
2018-12-18T16:03:35.736Z,9.75
2018-12-18T16:06:04.289Z,10.23
2018-12-18T16:08:32.913Z,11.18
2018-12-18T16:11:01.790Z,8.93
2018-12-18T16:13:31.453Z,8.50
2018-12-18T16:16:01.145Z,9.18
2018-12-18T16:18:29.805Z,10.25
2018-12-18T16:20:58.530Z,9.15
2018-12-18T16:23:27.165Z,10.68
2018-12-18T16:25:55.763Z,10.60
2018-12-18T16:28:24.391Z,8.83
2018-12-18T16:30:52.999Z,9.25
2018-12-18T16:33:22.193Z,10.90
2018-12-18T16:35:50.764Z,10.82
2018-12-18T16:38:19.275Z,11.57
2018-12-18T16:40:47.882Z,10.55
2018-12-18T16:43:16.536Z,12.70
2018-12-18T16:45:45.118Z,11.43
2018-12-18T16:48:13.715Z,11.85
2018-12-18T16:50:42.455Z,12.28
2018-12-18T16:53:11.014Z,16.42
2018-12-18T16:55:39.655Z,16.70
2018-12-18T16:58:08.239Z,14.90
2018-12-18T17:00:36.787Z,16.27
2018-12-18T17:03:05.366Z,17.48
2018-12-18T17:05:33.969Z,17.20
2018-12-18T17:08:03.173Z,19.30
2018-12-18T17:10:31.830Z,25.52
2018-12-18T17:13:00.925Z,35.60
2018-12-18T17:15:29.593Z,29.63
2018-12-18T17:17:58.141Z,34.60
2018-12-18T17:20:27.002Z,38.42
2018-12-18T17:22:55.554Z,43.28
2018-12-18T17:25:24.161Z,41.85
2018-12-18T17:27:52.876Z,44.75
2018-12-18T17:30:22.411Z,144.82
2018-12-18T17:32:51.073Z,134.15
2018-12-18T17:35:19.822Z,71.80
2018-12-18T17:37:49.133Z,68.12
2018-12-18T17:40:17.885Z,41.63
2018-12-18T17:42:46.685Z,46.48
2018-12-18T17:45:15.296Z,48.10
2018-12-18T17:47:43.973Z,33.50
2018-12-18T17:50:12.743Z,48.23
2018-12-18T17:52:41.376Z,55.08
2018-12-18T17:55:09.964Z,50.70
2018-12-18T17:57:38.767Z,34.67
2018-12-18T18:00:08.251Z,51.48
2018-12-18T18:02:36.923Z,57.15
2018-12-18T18:05:05.584Z,65.17
2018-12-18T18:07:34.762Z,46.97
2018-12-18T18:10:03.644Z,44.70
2018-12-18T18:12:33.431Z,76.33
2018-12-18T18:15:02.091Z,51.45
2018-12-18T18:17:31.184Z,52.38
2018-12-18T18:20:00.459Z,54.38
2018-12-18T18:22:29.285Z,38.40
2018-12-18T18:24:58.584Z,52.73
2018-12-18T18:27:27.525Z,47.15
2018-12-18T18:29:56.780Z,24.75
2018-12-18T18:32:25.346Z,44.80
2018-12-18T18:34:54.254Z,35.80
2018-12-18T18:37:22.905Z,42.15
2018-12-18T18:39:51.779Z,47.43
2018-12-18T18:42:21.056Z,41.90
2018-12-18T18:44:49.690Z,34.45
2018-12-18T18:47:18.309Z,22.82
2018-12-18T18:49:46.939Z,31.65
2018-12-18T18:52:15.971Z,35.03
2018-12-18T18:54:44.723Z,43.38
2018-12-18T18:57:13.245Z,46.08
2018-12-18T18:59:41.959Z,50.45
2018-12-18T19:02:10.626Z,40.12
2018-12-18T19:04:39.350Z,46.10
2018-12-18T19:07:08.254Z,30.90
2018-12-18T19:09:37.480Z,35.70
2018-12-18T19:12:06.927Z,29.30
2018-12-18T19:14:36.268Z,47.38
2018-12-18T19:17:05.133Z,37.78
2018-12-18T19:19:33.937Z,56.02
2018-12-18T19:22:02.579Z,24.63
2018-12-18T19:24:31.167Z,61.40
2018-12-18T19:27:00.207Z,63.15
2018-12-18T19:29:29.078Z,43.05
2018-12-18T19:31:58.002Z,46.25
2018-12-18T19:34:26.792Z,62.23
2018-12-18T19:36:55.812Z,174.53
2018-12-18T19:39:24.640Z,55.08
2018-12-18T19:41:54.159Z,90.72
2018-12-18T19:44:22.965Z,103.50
2018-12-18T19:46:51.674Z,55.05
2018-12-18T19:49:20.399Z,76.35
2018-12-18T19:51:49.286Z,70.22
2018-12-18T19:54:18.031Z,61.33
2018-12-18T19:56:46.896Z,58.80
2018-12-18T19:59:15.605Z,86.67
2018-12-18T20:01:44.585Z,86.02
2018-12-18T20:04:13.353Z,132.70
2018-12-18T20:06:42.413Z,43.90
2018-12-18T20:09:11.051Z,93.60
2018-12-18T20:11:40.017Z,166.15
2018-12-18T20:14:09.519Z,100.00
2018-12-18T20:16:38.387Z,99.22
2018-12-18T20:19:07.254Z,110.55
2018-12-18T20:21:36.259Z,98.70
2018-12-18T20:24:05.207Z,95.92
2018-12-18T20:26:34.256Z,65.67
2018-12-18T20:29:03.010Z,59.95
2018-12-18T20:31:31.884Z,69.22
2018-12-18T20:34:01.635Z,132.60
2018-12-18T20:36:30.593Z,104.58
2018-12-18T20:38:59.375Z,73.52
2018-12-18T20:41:28.844Z,39.90
2018-12-18T20:43:58.157Z,49.77
2018-12-18T20:46:27.112Z,45.58
2018-12-18T20:48:55.909Z,33.35
2018-12-18T20:51:24.513Z,42.33
2018-12-18T20:53:53.157Z,82.17
2018-12-18T20:56:22.568Z,62.05
2018-12-18T20:58:51.300Z,64.97
2018-12-18T21:01:20.018Z,35.68
2018-12-18T21:03:48.757Z,61.02
2018-12-18T21:06:17.941Z,78.67
2018-12-18T21:08:47.048Z,64.37
2018-12-18T21:11:15.701Z,31.02
2018-12-18T21:13:45.109Z,84.13
2018-12-18T21:16:13.839Z,47.55
2018-12-18T21:18:42.395Z,45.20
2018-12-18T21:21:15.484Z,48.80
2018-12-18T21:23:43.540Z,38.33
2018-12-18T21:26:12.399Z,46.73
2018-12-18T21:28:42.262Z,37.30
2018-12-18T21:31:11.085Z,40.80
2018-12-18T21:33:40.098Z,88.35
2018-12-18T21:36:09.094Z,77.25
2018-12-18T21:38:37.830Z,78.40
2018-12-18T21:41:06.451Z,43.90
2018-12-18T21:43:35.284Z,28.80
2018-12-18T21:46:04.131Z,61.75
2018-12-18T21:48:32.700Z,56.92
2018-12-18T21:51:01.599Z,47.55
2018-12-18T21:53:30.414Z,29.23
2018-12-18T21:55:59.201Z,23.80
2018-12-18T21:58:27.733Z,26.05
2018-12-18T22:00:56.466Z,32.95
2018-12-18T22:03:25.216Z,27.48
2018-12-18T22:05:53.869Z,35.17
2018-12-18T22:08:22.975Z,41.55
2018-12-18T22:10:52.046Z,37.67
2018-12-18T22:13:21.056Z,32.93
2018-12-18T22:15:49.649Z,33.70
2018-12-18T22:18:18.455Z,41.92
2018-12-18T22:20:47.207Z,53.83
2018-12-18T22:23:15.929Z,42.95
2018-12-18T22:25:44.513Z,49.73
2018-12-18T22:28:13.356Z,44.63
2018-12-18T22:30:42.649Z,54.63
2018-12-18T22:33:11.361Z,48.90
2018-12-18T22:35:40.673Z,61.45
2018-12-18T22:38:09.332Z,62.75
2018-12-18T22:40:37.861Z,44.48
2018-12-18T22:43:06.448Z,49.80
2018-12-18T22:45:35.269Z,33.53
2018-12-18T22:48:03.862Z,51.85
2018-12-18T22:50:32.932Z,36.75
2018-12-18T22:53:02.495Z,40.17
2018-12-18T22:55:31.187Z,50.63
2018-12-18T22:58:00.041Z,40.88
2018-12-18T23:00:34.121Z,58.95
2018-12-18T23:03:02.774Z,27.73
2018-12-18T23:05:32.001Z,39.08
2018-12-18T23:08:00.698Z,31.75
2018-12-18T23:10:29.584Z,22.93
2018-12-18T23:12:58.480Z,28.42
2018-12-18T23:15:27.290Z,32.98
2018-12-18T23:17:56.143Z,24.82
2018-12-18T23:20:24.847Z,23.75
2018-12-18T23:22:53.673Z,25.23
2018-12-18T23:25:22.316Z,30.50
2018-12-18T23:27:51.127Z,32.55
2018-12-18T23:30:19.937Z,35.92
2018-12-18T23:32:48.864Z,28.15
2018-12-18T23:35:17.625Z,35.08
2018-12-18T23:37:46.322Z,25.32
2018-12-18T23:40:14.914Z,39.50
2018-12-18T23:42:43.861Z,42.03
2018-12-18T23:45:12.606Z,41.18
2018-12-18T23:47:41.101Z,33.53
2018-12-18T23:50:10.357Z,27.80
2018-12-18T23:52:38.990Z,31.37
2018-12-18T23:55:07.879Z,34.25
2018-12-18T23:57:36.605Z,34.92
